Strona główna
METAR-TAF:

METAR-TAF

Lotnisko :

Sisseton Municipal Airport

Sisseton, Dakota Południowa, Stany Zjednoczone

Szerokość geograficzna: 45-40-08N, Długość geograficzna: 096-59-29W, wysokość: 354 m

Aktualna obserwacja pogody

Raport powstał 51 minut temu, godzina 05:56 UTC
Wiatr 3 kt od zachód
Temperatura 12°C
Wilgotność 94%
Ciśnienie 1017 hPa

METAR: K8D3 180556Z AUTO 28003KT 12/11 A3003 RMK AO1 SLP165 T01170106 10206 20117 402170106 51007

czas: 01:47 (06:47 UTC)


TAF: brakujący

Obserwacja i prognoza pogody dla ponad 4000 lotnisk (raport METAR i TAF).

Dostępne stacje oznaczono żółtymi i czerwonymi punktami na mapie.

Najedź kursorem aby zobaczyć nazwę stacji.

Kliknij aby zobaczyć obserwacje i prognozy pogody.

Aby zmienić mapę: kliknij na zielony przycisk z czarnym krzyżykiem, aby powiększyć; na zielony przycisk z myślnikiem, aby pomniejszyć; na zielone strzałki, aby przejść do map sąsiednich.


METAR-TAF: